Austin, Texas
Traffic Map
Current Weather Conditions
Austin, Texas
Clear
Clear
75°
Feels Like: 75°
Wind Chill: 75° Ceiling: Unl
Heat Index: 75° Visibility: 10mi
Dew Point: 47° Wind: 0mph
Humidity: 37% Direction: ° ()
Pressure: 30.01in Gusts: 0mph
Raw Report DataKATT 240151Z AUTO 00000KT 10SM CLR 24/08 A3001 RMK AO2 SLP153 T02390083
Traffic Incident Summary
Active as of:
Severity:
Category:
InformationThere was an issue retrieving the traffic information for this location. Please try a different location or try again shortly.
Advertisements